createdAt,value
2017-07-23T00:00:12.182Z,80.00
2017-07-23T00:02:40.450Z,79.90
2017-07-23T00:05:08.777Z,80.60
2017-07-23T00:07:36.980Z,80.10
2017-07-23T00:10:05.289Z,81.10
2017-07-23T00:12:33.553Z,81.80
2017-07-23T00:15:01.834Z,81.90
2017-07-23T00:17:30.120Z,83.00
2017-07-23T00:19:58.390Z,82.50
2017-07-23T00:22:26.619Z,82.40
2017-07-23T00:24:55.697Z,83.20
2017-07-23T00:27:23.940Z,82.90
2017-07-23T00:29:52.195Z,83.30
2017-07-23T00:32:20.508Z,83.70
2017-07-23T00:34:48.753Z,84.00
2017-07-23T00:37:17.025Z,84.50
2017-07-23T00:39:45.274Z,84.90
2017-07-23T00:42:13.578Z,85.40
2017-07-23T00:44:41.850Z,85.80
2017-07-23T00:47:10.081Z,86.20
2017-07-23T00:49:39.096Z,86.70
2017-07-23T00:52:07.350Z,86.70
2017-07-23T00:54:36.360Z,86.90
2017-07-23T00:57:04.624Z,86.60
2017-07-23T00:59:33.644Z,87.00
2017-07-23T01:02:01.910Z,87.00
2017-07-23T01:04:30.148Z,86.80
2017-07-23T01:06:58.409Z,86.90
2017-07-23T01:09:26.661Z,87.00
2017-07-23T01:11:54.905Z,87.00
2017-07-23T01:14:23.229Z,86.90
2017-07-23T01:16:51.485Z,87.50
2017-07-23T01:19:20.541Z,87.00
2017-07-23T01:21:49.558Z,86.20
2017-07-23T01:24:17.820Z,86.20
2017-07-23T01:26:46.077Z,86.10
2017-07-23T01:29:15.095Z,85.40
2017-07-23T01:31:43.349Z,85.40
2017-07-23T01:34:12.357Z,85.00
2017-07-23T01:36:40.640Z,85.70
2017-07-23T01:39:08.941Z,83.90
2017-07-23T01:41:37.198Z,83.40
2017-07-23T01:44:05.441Z,83.00
2017-07-23T01:46:34.457Z,82.50
2017-07-23T01:49:02.737Z,82.40
2017-07-23T01:51:31.029Z,82.40
2017-07-23T01:53:59.260Z,82.40
2017-07-23T01:56:28.307Z,82.90
2017-07-23T01:58:56.537Z,82.90
2017-07-23T02:01:24.851Z,82.40
2017-07-23T02:03:53.116Z,82.20
2017-07-23T02:06:21.392Z,82.30
2017-07-23T02:08:49.622Z,82.00
2017-07-23T02:11:18.625Z,81.70
2017-07-23T02:13:46.925Z,81.70
2017-07-23T02:16:15.272Z,81.70
2017-07-23T02:18:43.581Z,81.20
2017-07-23T02:21:11.891Z,80.90
2017-07-23T02:23:40.137Z,81.40
2017-07-23T02:26:08.377Z,80.10
2017-07-23T02:28:37.389Z,80.70
2017-07-23T02:31:05.624Z,80.70
2017-07-23T02:33:34.653Z,80.20
2017-07-23T02:36:02.955Z,79.40
2017-07-23T02:38:31.202Z,79.80
2017-07-23T02:40:59.430Z,79.50
2017-07-23T02:43:27.765Z,78.60
2017-07-23T02:45:56.076Z,78.60
2017-07-23T02:48:24.357Z,79.00
2017-07-23T02:50:52.617Z,79.10
2017-07-23T02:53:20.925Z,78.90
2017-07-23T02:55:49.244Z,78.60
2017-07-23T02:58:17.494Z,78.70
2017-07-23T03:00:45.974Z,79.00
2017-07-23T03:03:14.998Z,79.70
2017-07-23T03:05:43.226Z,79.70
2017-07-23T03:08:12.263Z,80.10
2017-07-23T03:10:40.491Z,80.10
2017-07-23T03:13:09.545Z,81.30
2017-07-23T03:15:38.605Z,80.40
2017-07-23T03:18:06.860Z,80.50
2017-07-23T03:20:35.099Z,80.50
2017-07-23T03:23:03.437Z,80.60
2017-07-23T03:25:31.737Z,80.00
2017-07-23T03:27:59.969Z,80.80
2017-07-23T03:30:29.102Z,81.10
2017-07-23T03:32:57.349Z,81.10
2017-07-23T03:35:26.372Z,81.80
2017-07-23T03:37:54.596Z,81.70
2017-07-23T03:40:22.917Z,82.20
2017-07-23T03:42:51.149Z,82.30
2017-07-23T03:45:20.186Z,82.90
2017-07-23T03:47:48.419Z,82.70
2017-07-23T03:50:17.433Z,83.10
2017-07-23T03:52:45.679Z,83.10
2017-07-23T03:55:13.924Z,83.80
2017-07-23T03:57:42.158Z,83.30
2017-07-23T04:00:10.425Z,83.30
2017-07-23T04:02:38.682Z,83.50
2017-07-23T04:05:07.692Z,83.80
2017-07-23T04:07:35.925Z,83.80
2017-07-23T04:10:04.175Z,84.00
2017-07-23T04:12:32.408Z,83.80
2017-07-23T04:15:01.417Z,83.90
2017-07-23T04:17:29.713Z,83.90
2017-07-23T04:19:57.980Z,83.50
2017-07-23T04:22:26.230Z,83.50
2017-07-23T04:24:55.367Z,83.60
2017-07-23T04:27:23.603Z,83.60
2017-07-23T04:29:52.592Z,83.50
2017-07-23T04:32:21.727Z,83.40
2017-07-23T04:34:49.993Z,83.40
2017-07-23T04:37:18.245Z,83.20
2017-07-23T04:39:46.544Z,83.10
2017-07-23T04:42:14.805Z,83.50
2017-07-23T04:44:43.032Z,83.00
2017-07-23T04:47:11.278Z,83.00
2017-07-23T04:49:39.523Z,83.20
2017-07-23T04:52:08.526Z,80.90
2017-07-23T04:54:36.754Z,80.90
2017-07-23T04:57:05.793Z,80.50
2017-07-23T04:59:34.096Z,80.50
2017-07-23T05:02:02.362Z,80.50
2017-07-23T05:04:30.633Z,79.80
2017-07-23T05:06:58.872Z,79.20
2017-07-23T05:09:27.873Z,78.60
2017-07-23T05:11:56.148Z,78.60
2017-07-23T05:14:25.152Z,77.30
2017-07-23T05:16:53.479Z,77.30
2017-07-23T05:19:21.709Z,76.70
2017-07-23T05:21:50.005Z,76.70
2017-07-23T05:24:18.243Z,76.20
2017-07-23T05:26:47.259Z,76.10
2017-07-23T05:29:15.546Z,76.00
2017-07-23T05:31:43.917Z,75.80
2017-07-23T05:34:12.149Z,75.20
2017-07-23T05:36:41.184Z,74.50
2017-07-23T05:39:09.459Z,74.40
2017-07-23T05:41:37.773Z,74.90
2017-07-23T05:44:06.022Z,74.10
2017-07-23T05:46:34.267Z,72.60
2017-07-23T05:49:03.376Z,71.50
2017-07-23T05:51:31.605Z,71.40
2017-07-23T05:53:59.860Z,71.90
2017-07-23T05:56:28.091Z,71.20
2017-07-23T05:58:56.397Z,71.30
2017-07-23T06:01:24.684Z,70.80
2017-07-23T06:03:52.932Z,69.90
2017-07-23T06:06:21.164Z,68.70
2017-07-23T06:08:50.201Z,69.10
2017-07-23T06:11:18.449Z,68.20
2017-07-23T06:13:46.728Z,68.00
2017-07-23T06:16:14.961Z,68.50
2017-07-23T06:18:43.209Z,68.00
2017-07-23T06:21:11.452Z,66.80
2017-07-23T06:23:39.700Z,66.10
2017-07-23T06:26:08.715Z,63.10
2017-07-23T06:28:37.716Z,63.00
2017-07-23T06:31:05.944Z,62.90
2017-07-23T06:33:34.194Z,61.40
2017-07-23T06:36:02.457Z,61.10
2017-07-23T06:38:30.712Z,60.70
2017-07-23T06:40:59.035Z,60.90
2017-07-23T06:43:27.286Z,59.80
2017-07-23T06:45:55.623Z,60.50
2017-07-23T06:48:24.717Z,60.60
2017-07-23T06:50:53.759Z,59.70
2017-07-23T06:53:22.104Z,59.60
2017-07-23T06:55:51.221Z,60.70
2017-07-23T06:58:19.457Z,60.70
2017-07-23T07:00:48.571Z,59.80
2017-07-23T07:03:16.796Z,59.70
2017-07-23T07:05:45.048Z,59.30
2017-07-23T07:08:13.370Z,59.60
2017-07-23T07:10:42.439Z,60.00
2017-07-23T07:13:10.790Z,59.20
2017-07-23T07:15:39.040Z,59.10
2017-07-23T07:18:07.265Z,59.40
2017-07-23T07:20:35.527Z,58.20
2017-07-23T07:23:03.781Z,57.90
2017-07-23T07:25:32.084Z,58.70
2017-07-23T07:28:00.348Z,59.40
2017-07-23T07:30:28.601Z,58.80
2017-07-23T07:32:56.847Z,59.10
2017-07-23T07:35:25.852Z,59.50
2017-07-23T07:37:54.093Z,59.50
2017-07-23T07:40:22.348Z,60.70
2017-07-23T07:42:50.590Z,61.40
2017-07-23T07:45:18.842Z,61.70
2017-07-23T07:47:47.897Z,61.40
2017-07-23T07:50:16.180Z,61.40
2017-07-23T07:52:44.425Z,63.60
2017-07-23T07:55:12.728Z,62.20
2017-07-23T07:57:40.996Z,61.50
2017-07-23T08:00:09.229Z,61.40
2017-07-23T08:02:37.490Z,61.60
2017-07-23T08:05:06.881Z,61.60
2017-07-23T08:07:35.205Z,61.50
2017-07-23T08:10:03.443Z,62.90
2017-07-23T08:12:32.469Z,60.20
2017-07-23T08:15:00.709Z,60.10
2017-07-23T08:17:29.205Z,59.60
2017-07-23T08:19:57.440Z,58.30
2017-07-23T08:22:25.734Z,57.60
2017-07-23T08:24:54.740Z,55.70
2017-07-23T08:27:23.764Z,53.90
2017-07-23T08:29:52.009Z,54.00
2017-07-23T08:32:21.025Z,51.10
2017-07-23T08:34:49.268Z,51.00
2017-07-23T08:37:18.280Z,50.50
2017-07-23T08:39:46.551Z,50.50
2017-07-23T08:42:14.807Z,49.80
2017-07-23T08:44:43.040Z,48.60
2017-07-23T08:47:11.334Z,47.10
2017-07-23T08:49:39.609Z,47.00
2017-07-23T08:52:07.885Z,44.40
2017-07-23T08:54:36.117Z,44.70
2017-07-23T08:57:04.369Z,42.80
2017-07-23T08:59:32.689Z,43.20
2017-07-23T09:02:00.940Z,44.30
2017-07-23T09:04:29.177Z,44.20
2017-07-23T09:06:58.276Z,45.50
2017-07-23T09:09:27.272Z,46.00
2017-07-23T09:11:56.308Z,46.00
2017-07-23T09:14:24.541Z,45.30
2017-07-23T09:16:53.897Z,45.00
2017-07-23T09:19:22.153Z,45.00
2017-07-23T09:21:50.405Z,44.50
2017-07-23T09:24:19.408Z,46.00
2017-07-23T09:26:47.658Z,45.90
2017-07-23T09:29:16.743Z,45.10
2017-07-23T09:31:45.435Z,44.70
2017-07-23T09:34:14.173Z,44.40
2017-07-23T09:36:42.501Z,43.30
2017-07-23T09:39:11.515Z,44.80
2017-07-23T09:41:39.752Z,44.10
2017-07-23T09:44:07.992Z,45.70
2017-07-23T09:46:36.276Z,45.30
2017-07-23T09:49:04.533Z,46.50
2017-07-23T09:51:32.849Z,45.40
2017-07-23T09:54:01.195Z,44.70
2017-07-23T09:56:29.421Z,43.00
2017-07-23T09:58:58.443Z,42.90
2017-07-23T10:01:27.299Z,43.00
2017-07-23T10:03:56.317Z,44.90
2017-07-23T10:06:24.559Z,44.30
2017-07-23T10:08:52.805Z,44.00
2017-07-23T10:11:21.134Z,44.60
2017-07-23T10:13:49.410Z,45.40
2017-07-23T10:16:18.433Z,43.30
2017-07-23T10:18:46.721Z,42.90
2017-07-23T10:21:14.954Z,42.60
2017-07-23T10:23:43.189Z,42.90
2017-07-23T10:26:11.484Z,41.30
2017-07-23T10:28:40.493Z,40.80
2017-07-23T10:31:09.505Z,38.50
2017-07-23T10:33:37.824Z,38.50
2017-07-23T10:36:06.069Z,39.60
2017-07-23T10:38:34.345Z,39.70
2017-07-23T10:41:02.600Z,39.60
2017-07-23T10:43:30.833Z,39.90
2017-07-23T10:45:59.090Z,39.50
2017-07-23T10:48:27.392Z,38.70
2017-07-23T10:50:56.577Z,36.50
2017-07-23T10:53:24.888Z,37.00
2017-07-23T10:55:53.963Z,38.30
2017-07-23T10:58:22.188Z,38.30
2017-07-23T11:00:50.460Z,39.30
2017-07-23T11:03:18.697Z,39.50
2017-07-23T11:05:47.725Z,39.20
2017-07-23T11:08:15.960Z,39.20
2017-07-23T11:10:45.160Z,39.10
2017-07-23T11:13:14.177Z,39.10
2017-07-23T11:15:42.452Z,39.10
2017-07-23T11:18:10.757Z,39.60
2017-07-23T11:20:39.037Z,39.90
2017-07-23T11:23:07.300Z,40.40
2017-07-23T11:25:35.557Z,38.70
2017-07-23T11:28:03.812Z,38.70
2017-07-23T11:30:32.844Z,37.00
2017-07-23T11:33:01.170Z,37.00
2017-07-23T11:35:30.235Z,38.00
2017-07-23T11:37:58.480Z,38.00
2017-07-23T11:40:26.732Z,36.10
2017-07-23T11:42:55.817Z,35.90
2017-07-23T11:45:24.849Z,36.80
2017-07-23T11:47:53.093Z,36.80
2017-07-23T11:50:22.109Z,38.00
2017-07-23T11:52:50.360Z,37.90
2017-07-23T11:55:20.523Z,37.00
2017-07-23T11:57:48.872Z,37.00
2017-07-23T12:00:17.100Z,37.30
2017-07-23T12:02:45.439Z,34.80
2017-07-23T12:05:13.697Z,34.10
2017-07-23T12:07:41.948Z,34.70
2017-07-23T12:10:11.024Z,36.90
2017-07-23T12:12:39.373Z,36.90
2017-07-23T12:15:07.615Z,35.80
2017-07-23T12:17:36.733Z,34.50
2017-07-23T12:20:05.165Z,34.50
2017-07-23T12:22:34.217Z,35.20
2017-07-23T12:25:02.445Z,34.70
2017-07-23T12:27:31.462Z,35.50
2017-07-23T12:29:59.798Z,35.50
2017-07-23T12:32:28.839Z,37.50
2017-07-23T12:34:57.073Z,37.50
2017-07-23T12:37:26.156Z,35.30
2017-07-23T12:39:54.489Z,35.40
2017-07-23T12:42:22.735Z,36.30
2017-07-23T12:44:51.891Z,34.80
2017-07-23T12:47:20.161Z,34.80
2017-07-23T12:49:48.397Z,34.20
2017-07-23T12:52:16.905Z,35.20
2017-07-23T12:54:45.268Z,34.60
2017-07-23T12:57:13.752Z,35.80
2017-07-23T12:59:41.985Z,34.40
2017-07-23T13:02:11.025Z,34.70
2017-07-23T13:04:39.276Z,34.60
2017-07-23T13:07:07.511Z,35.80
2017-07-23T13:09:35.761Z,35.40
2017-07-23T13:12:03.993Z,34.80
2017-07-23T13:14:32.250Z,34.40
2017-07-23T13:17:01.291Z,35.00
2017-07-23T13:19:29.536Z,35.00
2017-07-23T13:21:57.775Z,35.40
2017-07-23T13:24:26.028Z,36.40
2017-07-23T13:26:54.265Z,36.90
2017-07-23T13:29:22.577Z,36.60
2017-07-23T13:31:50.818Z,36.40
2017-07-23T13:34:19.054Z,35.40
2017-07-23T13:36:47.381Z,35.90
2017-07-23T13:39:15.673Z,36.20
2017-07-23T13:41:44.003Z,36.60
2017-07-23T13:44:13.014Z,37.80
2017-07-23T13:46:41.309Z,37.80
2017-07-23T13:49:09.574Z,37.70
2017-07-23T13:51:37.889Z,37.30
2017-07-23T13:54:06.139Z,37.30
2017-07-23T13:56:34.369Z,38.20
2017-07-23T13:59:03.486Z,38.60
2017-07-23T14:01:31.745Z,38.60
2017-07-23T14:04:00.764Z,39.20
2017-07-23T14:06:29.081Z,39.30
2017-07-23T14:08:57.404Z,39.70
2017-07-23T14:11:25.661Z,39.90
2017-07-23T14:13:54.713Z,39.70
2017-07-23T14:16:22.960Z,39.70
2017-07-23T14:18:51.308Z,37.90
2017-07-23T14:21:19.547Z,38.00
2017-07-23T14:23:47.774Z,38.30
2017-07-23T14:26:16.092Z,38.10
2017-07-23T14:28:44.371Z,38.00
2017-07-23T14:31:12.626Z,37.60
2017-07-23T14:33:40.949Z,37.70
2017-07-23T14:36:09.964Z,37.50
2017-07-23T14:38:38.272Z,37.40
2017-07-23T14:41:06.593Z,37.60
2017-07-23T14:43:35.592Z,39.10
2017-07-23T14:46:04.629Z,39.00
2017-07-23T14:48:32.912Z,38.80
2017-07-23T14:51:01.276Z,39.00
2017-07-23T14:56:04.284Z,39.40
2017-07-23T14:58:32.533Z,39.50
2017-07-23T15:01:00.817Z,39.90
2017-07-23T15:03:29.051Z,39.40
2017-07-23T15:05:57.301Z,39.40
2017-07-23T15:08:25.536Z,39.30
2017-07-23T15:10:53.789Z,39.90
2017-07-23T15:13:22.784Z,39.70
2017-07-23T15:15:51.801Z,39.20
2017-07-23T15:18:20.101Z,39.20
2017-07-23T15:20:48.521Z,39.10
2017-07-23T15:23:16.846Z,39.50
2017-07-23T15:25:45.072Z,40.00
2017-07-23T15:28:13.443Z,40.20
2017-07-23T15:30:41.717Z,40.40
2017-07-23T15:33:10.337Z,40.60
2017-07-23T15:35:38.632Z,41.10
2017-07-23T15:38:06.945Z,40.00
2017-07-23T15:40:35.189Z,39.20
2017-07-23T15:43:03.457Z,39.40
2017-07-23T15:45:31.757Z,40.20
2017-07-23T15:48:00.067Z,40.00
2017-07-23T15:50:28.299Z,40.30
2017-07-23T15:52:56.541Z,40.30
2017-07-23T15:55:24.785Z,40.50
2017-07-23T15:57:53.123Z,41.00
2017-07-23T16:00:21.384Z,40.70
2017-07-23T16:02:49.651Z,40.30
2017-07-23T16:05:17.900Z,40.80
2017-07-23T16:07:46.232Z,40.10
2017-07-23T16:10:14.485Z,39.90
2017-07-23T16:12:42.741Z,39.60
2017-07-23T16:15:11.013Z,39.60
2017-07-23T16:17:39.527Z,39.60
2017-07-23T16:20:07.883Z,40.50
2017-07-23T16:22:36.199Z,40.60
2017-07-23T16:25:04.440Z,41.00
2017-07-23T16:27:32.664Z,40.70
2017-07-23T16:30:00.957Z,40.70
2017-07-23T16:32:29.969Z,40.60
2017-07-23T16:34:58.255Z,40.60
2017-07-23T16:37:26.501Z,39.90
2017-07-23T16:39:55.529Z,39.90
2017-07-23T16:42:23.818Z,39.80
2017-07-23T16:44:52.117Z,40.30
2017-07-23T16:47:20.347Z,40.70
2017-07-23T16:49:48.624Z,41.30
2017-07-23T16:52:16.918Z,40.40
2017-07-23T16:54:45.173Z,39.20
2017-07-23T16:57:13.404Z,39.30
2017-07-23T16:59:41.657Z,39.20
2017-07-23T17:02:09.893Z,38.50
2017-07-23T17:04:38.148Z,38.70
2017-07-23T17:07:07.170Z,39.90
2017-07-23T17:09:35.441Z,39.90
2017-07-23T17:12:03.689Z,39.80
2017-07-23T17:14:31.920Z,39.70
2017-07-23T17:17:00.165Z,39.10
2017-07-23T17:19:28.422Z,38.70
2017-07-23T17:21:57.424Z,39.30
2017-07-23T17:24:25.695Z,39.20
2017-07-23T17:26:54.048Z,39.20
2017-07-23T17:29:22.321Z,40.10
2017-07-23T17:31:51.343Z,40.60
2017-07-23T17:34:19.663Z,39.80
2017-07-23T17:36:47.911Z,39.90
2017-07-23T17:39:16.200Z,40.30
2017-07-23T17:41:44.481Z,40.20
2017-07-23T17:44:12.755Z,40.40
2017-07-23T17:46:41.016Z,40.70
2017-07-23T17:49:09.275Z,40.70
2017-07-23T17:51:37.536Z,40.80
2017-07-23T17:54:06.544Z,40.40
2017-07-23T17:56:34.812Z,40.40
2017-07-23T17:59:03.054Z,40.70
2017-07-23T18:01:31.294Z,40.70
2017-07-23T18:03:59.565Z,40.90
2017-07-23T18:06:27.846Z,40.90
2017-07-23T18:08:56.051Z,41.10
2017-07-23T18:11:24.565Z,41.00
2017-07-23T18:13:53.561Z,41.20
2017-07-23T18:16:21.813Z,41.20
2017-07-23T18:18:50.838Z,42.10
2017-07-23T18:21:19.130Z,41.50
2017-07-23T18:23:47.418Z,41.80
2017-07-23T18:26:15.656Z,41.80
2017-07-23T18:28:43.912Z,42.10
2017-07-23T18:31:12.925Z,42.40
2017-07-23T18:33:41.937Z,42.20
2017-07-23T18:36:10.215Z,42.10
2017-07-23T18:38:38.462Z,42.10
2017-07-23T18:41:07.474Z,42.60
2017-07-23T18:43:35.706Z,42.60
2017-07-23T18:46:03.933Z,42.10
2017-07-23T18:48:32.208Z,42.60
2017-07-23T18:51:00.436Z,42.10
2017-07-23T18:53:29.488Z,42.40
2017-07-23T18:55:57.751Z,42.20
2017-07-23T18:58:26.010Z,42.10
2017-07-23T19:00:54.249Z,42.50
2017-07-23T19:03:22.482Z,42.50
2017-07-23T19:05:50.723Z,42.40
2017-07-23T19:08:19.159Z,42.40
2017-07-23T19:10:47.377Z,42.50
2017-07-23T19:13:16.435Z,42.50
2017-07-23T19:15:44.694Z,42.50
2017-07-23T19:18:12.957Z,42.60
2017-07-23T19:20:41.208Z,43.00
2017-07-23T19:23:09.434Z,43.00
2017-07-23T19:25:37.769Z,43.30
2017-07-23T19:28:06.022Z,43.30
2017-07-23T19:30:34.285Z,44.00
2017-07-23T19:33:03.312Z,44.70
2017-07-23T19:35:31.640Z,44.70
2017-07-23T19:37:59.964Z,44.80
2017-07-23T19:40:28.294Z,44.00
2017-07-23T19:42:56.521Z,43.50
2017-07-23T19:45:24.771Z,43.50
2017-07-23T19:47:53.769Z,43.80
2017-07-23T19:50:22.021Z,43.80
2017-07-23T19:52:51.013Z,43.70
2017-07-23T19:55:20.037Z,44.70
2017-07-23T19:57:48.365Z,43.90
2017-07-23T20:00:16.609Z,44.20
2017-07-23T20:02:45.144Z,44.30
2017-07-23T20:05:13.457Z,44.40
2017-07-23T20:07:41.718Z,44.60
2017-07-23T20:10:10.033Z,44.50
2017-07-23T20:12:38.276Z,44.80
2017-07-23T20:15:06.521Z,45.00
2017-07-23T20:17:35.529Z,45.70
2017-07-23T20:20:03.804Z,45.10
2017-07-23T20:22:32.079Z,45.30
2017-07-23T20:25:01.091Z,45.60
2017-07-23T20:27:29.385Z,45.50
2017-07-23T20:29:57.628Z,45.90
2017-07-23T20:32:25.935Z,47.40
2017-07-23T20:34:54.668Z,48.70
2017-07-23T20:37:22.967Z,49.20
2017-07-23T20:39:51.957Z,49.40
2017-07-23T20:42:20.228Z,49.40
2017-07-23T20:44:49.218Z,50.40
2017-07-23T20:47:18.229Z,49.50
2017-07-23T20:49:46.540Z,49.50
2017-07-23T20:52:14.812Z,49.50
2017-07-23T20:54:43.116Z,49.60
2017-07-23T20:57:11.655Z,49.60
2017-07-23T20:59:40.020Z,50.00
2017-07-23T21:02:08.305Z,50.30
2017-07-23T21:04:36.549Z,50.40
2017-07-23T21:07:05.579Z,50.90
2017-07-23T21:09:33.852Z,50.80
2017-07-23T21:12:02.228Z,50.90
2017-07-23T21:14:30.459Z,51.10
2017-07-23T21:16:59.480Z,51.40
2017-07-23T21:19:27.780Z,51.40
2017-07-23T21:21:56.053Z,50.50
2017-07-23T21:24:24.331Z,50.00
2017-07-23T21:26:52.681Z,49.80
2017-07-23T21:29:20.937Z,49.40
2017-07-23T21:31:49.971Z,49.10
2017-07-23T21:34:18.216Z,49.10
2017-07-23T21:36:46.480Z,48.20
2017-07-23T21:39:15.523Z,48.10
2017-07-23T21:41:43.762Z,48.10
2017-07-23T21:44:12.017Z,49.00
2017-07-23T21:46:40.255Z,52.10
2017-07-23T21:49:08.528Z,50.60
2017-07-23T21:51:36.782Z,50.90
2017-07-23T21:54:05.081Z,50.70
2017-07-23T21:56:33.314Z,50.30
2017-07-23T21:59:01.577Z,50.70
2017-07-23T22:01:30.582Z,49.60
2017-07-23T22:03:58.832Z,49.60
2017-07-23T22:06:27.044Z,50.60
2017-07-23T22:08:55.301Z,50.70
2017-07-23T22:11:23.546Z,49.80
2017-07-23T22:13:51.819Z,49.50
2017-07-23T22:16:20.089Z,50.20
2017-07-23T22:18:48.340Z,51.00
2017-07-23T22:21:16.582Z,49.90
2017-07-23T22:23:44.833Z,50.50
2017-07-23T22:26:13.875Z,50.90
2017-07-23T22:28:42.191Z,50.90
2017-07-23T22:31:10.453Z,50.60
2017-07-23T22:33:38.704Z,50.00
2017-07-23T22:36:06.937Z,49.00
2017-07-23T22:38:35.945Z,50.30
2017-07-23T22:41:04.249Z,49.60
2017-07-23T22:43:32.528Z,50.30
2017-07-23T22:46:00.826Z,51.00
2017-07-23T22:48:29.066Z,50.80
2017-07-23T22:50:57.312Z,50.80
2017-07-23T22:53:26.358Z,52.20
2017-07-23T22:55:54.612Z,52.10
2017-07-23T22:58:22.871Z,52.70
2017-07-23T23:00:51.126Z,53.90
2017-07-23T23:03:19.389Z,54.20
2017-07-23T23:05:47.668Z,53.70
2017-07-23T23:08:16.684Z,53.20
2017-07-23T23:10:44.953Z,52.70
2017-07-23T23:13:13.943Z,54.40
2017-07-23T23:15:42.994Z,54.00
2017-07-23T23:18:11.254Z,53.90
2017-07-23T23:20:39.526Z,54.80
2017-07-23T23:23:07.755Z,55.70
2017-07-23T23:25:36.784Z,57.20
2017-07-23T23:28:05.025Z,56.60
2017-07-23T23:30:34.052Z,56.50
2017-07-23T23:33:02.312Z,56.50
2017-07-23T23:35:30.579Z,57.40
2017-07-23T23:37:59.613Z,56.50
2017-07-23T23:40:27.881Z,56.50
2017-07-23T23:42:56.125Z,54.80
2017-07-23T23:45:24.359Z,55.70
2017-07-23T23:47:52.654Z,57.00
2017-07-23T23:50:20.876Z,57.80
2017-07-23T23:52:49.157Z,58.00
2017-07-23T23:55:17.399Z,58.00
2017-07-23T23:57:45.673Z,57.10
